sensor_id;sensor_type;location;lat;lon;timestamp;temperature;humidity
1950;DHT22;975;48.760;9.152;2023-02-15T00:53:38;6.60;99.90
1950;DHT22;975;48.760;9.152;2023-02-15T02:32:33;1.60;99.90
1950;DHT22;975;48.760;9.152;2023-02-15T02:35:08;1.10;99.90
1950;DHT22;975;48.760;9.152;2023-02-15T03:02:41;1.00;99.90
1950;DHT22;975;48.760;9.152;2023-02-15T03:05:16;1.00;99.90
1950;DHT22;975;48.760;9.152;2023-02-15T03:07:48;0.90;99.90
1950;DHT22;975;48.760;9.152;2023-02-15T03:10:18;1.00;99.90
1950;DHT22;975;48.760;9.152;2023-02-15T03:12:48;0.90;99.90
1950;DHT22;975;48.760;9.152;2023-02-15T03:15:19;1.00;99.90
1950;DHT22;975;48.760;9.152;2023-02-15T03:17:51;0.90;99.90
1950;DHT22;975;48.760;9.152;2023-02-15T03:20:24;0.90;99.90
1950;DHT22;975;48.760;9.152;2023-02-15T03:22:55;0.80;99.90
1950;DHT22;975;48.760;9.152;2023-02-15T03:25:24;0.80;99.90
1950;DHT22;975;48.760;9.152;2023-02-15T03:27:59;0.80;99.90
1950;DHT22;975;48.760;9.152;2023-02-15T03:30:29;0.80;99.90
1950;DHT22;975;48.760;9.152;2023-02-15T03:32:58;0.80;99.90
1950;DHT22;975;48.760;9.152;2023-02-15T03:35:33;0.80;99.90
1950;DHT22;975;48.760;9.152;2023-02-15T03:38:06;0.70;99.90
1950;DHT22;975;48.760;9.152;2023-02-15T03:40:37;0.70;99.90
1950;DHT22;975;48.760;9.152;2023-02-15T03:43:27;0.70;99.90
1950;DHT22;975;48.760;9.152;2023-02-15T03:46:00;0.70;99.90
1950;DHT22;975;48.760;9.152;2023-02-15T03:48:33;0.70;99.90
1950;DHT22;975;48.760;9.152;2023-02-15T03:51:06;0.60;99.90
1950;DHT22;975;48.760;9.152;2023-02-15T03:53:53;0.60;99.90
1950;DHT22;975;48.760;9.152;2023-02-15T03:56:21;0.60;99.90
1950;DHT22;975;48.760;9.152;2023-02-15T03:58:51;0.60;99.90
1950;DHT22;975;48.760;9.152;2023-02-15T04:01:39;0.60;99.90
1950;DHT22;975;48.760;9.152;2023-02-15T04:04:33;0.50;99.90
1950;DHT22;975;48.760;9.152;2023-02-15T04:07:03;0.50;99.90
1950;DHT22;975;48.760;9.152;2023-02-15T04:09:31;0.50;99.90
1950;DHT22;975;48.760;9.152;2023-02-15T04:12:16;0.50;99.90
1950;DHT22;975;48.760;9.152;2023-02-15T04:14:44;0.60;99.90
1950;DHT22;975;48.760;9.152;2023-02-15T05:07:35;0.60;99.90
1950;DHT22;975;48.760;9.152;2023-02-15T05:10:03;0.40;99.90
1950;DHT22;975;48.760;9.152;2023-02-15T05:19:55;0.40;99.90
1950;DHT22;975;48.760;9.152;2023-02-15T05:22:22;0.40;99.90
1950;DHT22;975;48.760;9.152;2023-02-15T05:24:49;0.40;99.90
1950;DHT22;975;48.760;9.152;2023-02-15T05:27:36;0.30;99.90
1950;DHT22;975;48.760;9.152;2023-02-15T05:30:20;0.40;99.90
1950;DHT22;975;48.760;9.152;2023-02-15T05:32:48;0.30;99.90
1950;DHT22;975;48.760;9.152;2023-02-15T05:35:16;0.30;99.90
1950;DHT22;975;48.760;9.152;2023-02-15T05:37:49;0.30;99.90
1950;DHT22;975;48.760;9.152;2023-02-15T05:40:17;0.30;99.90
1950;DHT22;975;48.760;9.152;2023-02-15T05:42:48;0.40;99.90
1950;DHT22;975;48.760;9.152;2023-02-15T05:45:15;0.40;99.90
1950;DHT22;975;48.760;9.152;2023-02-15T05:47:46;0.30;99.90
1950;DHT22;975;48.760;9.152;2023-02-15T05:50:13;0.30;99.90
1950;DHT22;975;48.760;9.152;2023-02-15T05:52:41;0.30;99.90
1950;DHT22;975;48.760;9.152;2023-02-15T05:55:08;0.30;99.90
1950;DHT22;975;48.760;9.152;2023-02-15T05:57:36;0.30;99.90
1950;DHT22;975;48.760;9.152;2023-02-15T06:00:06;0.30;99.90
1950;DHT22;975;48.760;9.152;2023-02-15T06:02:35;0.30;99.90
1950;DHT22;975;48.760;9.152;2023-02-15T06:05:02;0.20;99.90
1950;DHT22;975;48.760;9.152;2023-02-15T06:07:32;0.20;99.90
1950;DHT22;975;48.760;9.152;2023-02-15T06:10:08;0.30;99.90
1950;DHT22;975;48.760;9.152;2023-02-15T06:12:43;0.30;99.90
1950;DHT22;975;48.760;9.152;2023-02-15T06:15:14;0.20;99.90
1950;DHT22;975;48.760;9.152;2023-02-15T06:17:42;0.20;99.90
1950;DHT22;975;48.760;9.152;2023-02-15T06:20:10;0.20;99.90
1950;DHT22;975;48.760;9.152;2023-02-15T06:22:38;0.20;99.90
1950;DHT22;975;48.760;9.152;2023-02-15T06:25:08;0.20;99.90
1950;DHT22;975;48.760;9.152;2023-02-15T06:27:37;0.30;99.90
1950;DHT22;975;48.760;9.152;2023-02-15T06:30:06;0.30;99.90
1950;DHT22;975;48.760;9.152;2023-02-15T06:32:35;0.20;99.90
1950;DHT22;975;48.760;9.152;2023-02-15T07:04:35;0.30;99.90
1950;DHT22;975;48.760;9.152;2023-02-15T07:07:10;0.00;99.90
1950;DHT22;975;48.760;9.152;2023-02-15T07:09:38;0.10;99.90
1950;DHT22;975;48.760;9.152;2023-02-15T07:12:05;0.10;99.90
1950;DHT22;975;48.760;9.152;2023-02-15T07:14:51;0.20;99.90
1950;DHT22;975;48.760;9.152;2023-02-15T07:17:18;0.30;99.90
1950;DHT22;975;48.760;9.152;2023-02-15T07:19:46;0.30;99.90
1950;DHT22;975;48.760;9.152;2023-02-15T07:22:17;0.40;99.90
1950;DHT22;975;48.760;9.152;2023-02-15T14:50:37;8.70;98.60
1950;DHT22;975;48.760;9.152;2023-02-15T15:59:04;13.20;87.80
1950;DHT22;975;48.760;9.152;2023-02-15T16:01:35;11.40;91.40
1950;DHT22;975;48.760;9.152;2023-02-15T16:04:03;11.30;91.30
1950;DHT22;975;48.760;9.152;2023-02-15T16:06:33;11.20;91.60
1950;DHT22;975;48.760;9.152;2023-02-15T16:09:16;11.10;91.90
1950;DHT22;975;48.760;9.152;2023-02-15T16:11:46;11.00;92.20
1950;DHT22;975;48.760;9.152;2023-02-15T16:14:16;10.90;92.20
1950;DHT22;975;48.760;9.152;2023-02-15T16:16:51;10.70;92.60
1950;DHT22;975;48.760;9.152;2023-02-15T16:19:22;10.60;92.90
1950;DHT22;975;48.760;9.152;2023-02-15T16:21:51;10.50;93.00
1950;DHT22;975;48.760;9.152;2023-02-15T16:24:27;10.30;93.40
1950;DHT22;975;48.760;9.152;2023-02-15T16:30:20;10.10;93.90
1950;DHT22;975;48.760;9.152;2023-02-15T16:32:49;9.80;94.20
1950;DHT22;975;48.760;9.152;2023-02-15T16:35:20;9.70;94.60
1950;DHT22;975;48.760;9.152;2023-02-15T16:37:48;9.60;94.70
1950;DHT22;975;48.760;9.152;2023-02-15T16:40:33;9.50;94.90
1950;DHT22;975;48.760;9.152;2023-02-15T16:43:06;9.30;95.10
1950;DHT22;975;48.760;9.152;2023-02-15T16:45:34;9.20;95.50
1950;DHT22;975;48.760;9.152;2023-02-15T16:48:07;9.10;95.80
1950;DHT22;975;48.760;9.152;2023-02-15T16:50:37;8.90;95.80
1950;DHT22;975;48.760;9.152;2023-02-15T16:53:07;8.80;96.00
1950;DHT22;975;48.760;9.152;2023-02-15T16:55:41;8.60;96.40
1950;DHT22;975;48.760;9.152;2023-02-15T16:58:16;8.50;96.70
1950;DHT22;975;48.760;9.152;2023-02-15T17:00:51;8.40;96.90
1950;DHT22;975;48.760;9.152;2023-02-15T17:03:30;8.30;97.30
1950;DHT22;975;48.760;9.152;2023-02-15T17:05:59;8.20;97.50
1950;DHT22;975;48.760;9.152;2023-02-15T17:08:29;8.10;97.60
1950;DHT22;975;48.760;9.152;2023-02-15T17:11:12;8.00;97.70
1950;DHT22;975;48.760;9.152;2023-02-15T17:14:11;7.90;97.90
1950;DHT22;975;48.760;9.152;2023-02-15T17:16:44;7.80;98.30
1950;DHT22;975;48.760;9.152;2023-02-15T17:19:18;7.60;98.30
1950;DHT22;975;48.760;9.152;2023-02-15T17:21:50;7.60;98.50
1950;DHT22;975;48.760;9.152;2023-02-15T17:24:18;7.50;98.70
1950;DHT22;975;48.760;9.152;2023-02-15T17:26:51;7.50;98.90
1950;DHT22;975;48.760;9.152;2023-02-15T17:29:33;7.40;99.00
1950;DHT22;975;48.760;9.152;2023-02-15T17:32:02;7.30;99.30
1950;DHT22;975;48.760;9.152;2023-02-15T17:34:47;7.20;99.40
1950;DHT22;975;48.760;9.152;2023-02-15T17:37:28;7.20;99.40
1950;DHT22;975;48.760;9.152;2023-02-15T17:39:56;7.10;99.60
1950;DHT22;975;48.760;9.152;2023-02-15T17:42:24;7.00;99.70
1950;DHT22;975;48.760;9.152;2023-02-15T17:47:22;7.00;99.90
1950;DHT22;975;48.760;9.152;2023-02-15T17:49:51;6.80;99.90
1950;DHT22;975;48.760;9.152;2023-02-15T17:52:19;6.80;99.90
1950;DHT22;975;48.760;9.152;2023-02-15T17:54:50;6.70;99.90
1950;DHT22;975;48.760;9.152;2023-02-15T17:57:34;6.70;99.90
1950;DHT22;975;48.760;9.152;2023-02-15T18:00:06;6.60;99.90
1950;DHT22;975;48.760;9.152;2023-02-15T18:02:51;6.60;99.90
1950;DHT22;975;48.760;9.152;2023-02-15T18:11:13;6.50;99.90
1950;DHT22;975;48.760;9.152;2023-02-15T20:53:38;6.30;99.90
1950;DHT22;975;48.760;9.152;2023-02-15T20:56:08;4.10;99.90
1950;DHT22;975;48.760;9.152;2023-02-15T20:58:38;4.00;99.90
1950;DHT22;975;48.760;9.152;2023-02-15T21:01:10;4.00;99.90
1950;DHT22;975;48.760;9.152;2023-02-15T21:03:38;4.00;99.90
1950;DHT22;975;48.760;9.152;2023-02-15T21:06:05;4.00;99.90
1950;DHT22;975;48.760;9.152;2023-02-15T21:08:34;4.00;99.90
